Time;durP1;ratioP1;P1;durP2;ratioP2;P2;SDS_P1;SDS_P2;PMS_P1;PMS_P2;Temp;Humidity;BMP_temperature;BMP_pressure;BME280_temperature;BME280_humidity;BME280_pressure;Samples;Min_cycle;Max_cycle;Signal;HPM_P1;HPM_P2
2023/08/26 00:00:54;;;;;;;6.53;4.83;;;24.40;97.50;;;;;;5074080;28;20212;-68
2023/08/26 00:03:21;;;;;;;5.63;3.87;;;24.20;97.00;;;;;;5073881;28;20239;-68
2023/08/26 00:05:48;;;;;;;3.17;2.83;;;24.20;97.10;;;;;;5073833;28;20531;-66
2023/08/26 00:08:15;;;;;;;2.87;2.63;;;24.20;96.60;;;;;;5073670;28;20471;-67
2023/08/26 00:10:43;;;;;;;2.93;2.57;;;24.30;96.70;;;;;;5073440;28;20189;-68
2023/08/26 00:13:11;;;;;;;2.73;2.50;;;24.20;96.50;;;;;;5073718;28;20204;-69
2023/08/26 00:15:38;;;;;;;4.13;2.27;;;24.20;96.30;;;;;;5073598;28;20232;-69
2023/08/26 00:18:08;;;;;;;3.33;2.20;;;24.20;96.10;;;;;;5073714;28;20207;-69
2023/08/26 00:20:35;;;;;;;3.83;2.70;;;24.20;96.50;;;;;;5073066;28;20288;-68
2023/08/26 00:23:02;;;;;;;3.50;2.50;;;24.30;96.20;;;;;;5073708;28;20216;-67
2023/08/26 00:25:29;;;;;;;3.53;2.50;;;24.30;95.90;;;;;;5073563;28;20212;-69
2023/08/26 00:27:57;;;;;;;3.33;2.60;;;24.40;96.00;;;;;;5073354;28;20299;-68
2023/08/26 00:30:25;;;;;;;3.53;2.63;;;24.50;96.10;;;;;;5073158;28;20237;-68
2023/08/26 00:32:52;;;;;;;3.23;2.77;;;24.50;96.00;;;;;;5073742;28;20466;-69
2023/08/26 00:35:19;;;;;;;3.33;3.00;;;24.50;95.90;;;;;;5072832;28;20319;-68
2023/08/26 00:37:46;;;;;;;3.83;3.13;;;24.60;95.80;;;;;;5073417;28;20230;-69
2023/08/26 00:40:12;;;;;;;4.33;3.40;;;24.60;95.70;;;;;;5072595;28;20235;-68
2023/08/26 00:42:39;;;;;;;5.73;4.33;;;24.70;95.60;;;;;;5072967;28;20277;-67
2023/08/26 00:45:08;;;;;;;5.67;3.90;;;24.70;95.90;;;;;;5073168;28;20205;-69
2023/08/26 00:47:37;;;;;;;5.13;3.60;;;24.80;95.80;;;;;;5073328;28;20197;-67
2023/08/26 00:50:05;;;;;;;3.90;3.47;;;24.80;95.40;;;;;;5072700;28;20215;-68
2023/08/26 00:52:31;;;;;;;4.43;3.57;;;24.70;95.50;;;;;;5072718;28;20207;-67
2023/08/26 00:54:58;;;;;;;3.67;2.93;;;24.70;95.30;;;;;;5072809;28;20192;-68
2023/08/26 00:57:25;;;;;;;4.83;3.17;;;24.80;95.20;;;;;;5073092;28;20221;-68
2023/08/26 00:59:52;;;;;;;3.97;2.57;;;24.70;94.90;;;;;;5072889;28;20209;-69
2023/08/26 01:02:20;;;;;;;3.20;2.70;;;24.80;94.90;;;;;;5072252;28;20233;-69
2023/08/26 01:04:47;;;;;;;3.23;2.93;;;24.70;95.00;;;;;;5072121;28;20237;-68
2023/08/26 01:07:14;;;;;;;3.03;2.37;;;24.80;94.80;;;;;;5072225;28;20321;-68
2023/08/26 01:09:41;;;;;;;3.67;2.50;;;24.80;94.80;;;;;;5072467;28;20205;-69
2023/08/26 01:12:17;;;;;;;2.90;2.63;;;24.80;94.70;;;;;;5072403;28;20592;-67
2023/08/26 01:14:50;;;;;;;4.20;2.40;;;24.90;95.00;;;;;;5072587;28;20657;-68
2023/08/26 01:17:18;;;;;;;3.57;2.47;;;25.00;95.00;;;;;;5072681;28;20225;-68
2023/08/26 01:19:47;;;;;;;2.77;2.53;;;25.00;94.70;;;;;;5070978;28;20223;-68
2023/08/26 01:22:19;;;;;;;2.90;2.60;;;25.00;94.60;;;;;;5071980;28;20243;-69
2023/08/26 01:24:48;;;;;;;3.03;2.63;;;25.00;94.70;;;;;;5072548;28;20189;-68
2023/08/26 01:27:15;;;;;;;3.03;2.73;;;25.00;94.70;;;;;;5072648;28;20233;-69
2023/08/26 01:29:42;;;;;;;3.47;3.00;;;25.00;94.60;;;;;;5072636;28;20276;-69
2023/08/26 01:32:19;;;;;;;3.20;2.63;;;25.00;94.70;;;;;;5071459;28;20213;-68
2023/08/26 01:34:50;;;;;;;3.93;2.43;;;25.10;94.90;;;;;;5072455;28;20193;-67
2023/08/26 01:37:19;;;;;;;3.33;2.97;;;25.10;94.80;;;;;;5071946;28;20307;-69
2023/08/26 01:39:51;;;;;;;3.77;3.10;;;25.10;94.70;;;;;;5072725;28;20214;-69
2023/08/26 01:42:20;;;;;;;3.50;3.20;;;25.10;95.10;;;;;;5072047;28;20221;-67
2023/08/26 01:44:47;;;;;;;3.97;3.40;;;25.10;94.70;;;;;;5072250;28;20212;-69
2023/08/26 01:47:14;;;;;;;3.90;3.30;;;25.10;94.70;;;;;;5072105;28;20205;-68
2023/08/26 01:49:41;;;;;;;3.90;3.20;;;25.10;94.90;;;;;;5072098;28;20229;-69
2023/08/26 01:52:08;;;;;;;4.57;3.53;;;25.20;94.80;;;;;;5072071;28;20217;-68
2023/08/26 01:54:34;;;;;;;4.37;3.57;;;25.20;94.90;;;;;;5072081;28;20229;-69
2023/08/26 01:57:03;;;;;;;6.27;3.53;;;25.20;94.60;;;;;;5071724;28;20693;-69
2023/08/26 01:59:29;;;;;;;4.07;3.27;;;25.20;95.10;;;;;;5072131;28;20604;-69
2023/08/26 02:01:56;;;;;;;3.93;3.43;;;25.20;94.70;;;;;;5071939;28;20223;-69
2023/08/26 02:04:24;;;;;;;4.90;3.77;;;25.20;94.60;;;;;;5071368;28;20603;-69
2023/08/26 02:06:51;;;;;;;4.20;3.80;;;25.30;94.70;;;;;;5071747;28;20292;-69
2023/08/26 02:09:17;;;;;;;5.37;4.03;;;25.30;94.80;;;;;;5072010;28;20221;-68
2023/08/26 02:11:44;;;;;;;5.67;3.80;;;25.30;94.70;;;;;;5071807;28;20197;-68
2023/08/26 02:14:12;;;;;;;5.63;3.93;;;25.20;94.70;;;;;;5071549;28;20201;-68
2023/08/26 02:16:39;;;;;;;4.83;4.20;;;25.20;94.70;;;;;;5072712;28;20319;-69
2023/08/26 02:19:06;;;;;;;7.27;5.00;;;25.20;94.70;;;;;;5075661;28;20696;-69
2023/08/26 02:21:33;;;;;;;5.97;4.37;;;25.20;94.60;;;;;;5075908;28;20205;-68
2023/08/26 02:24:00;;;;;;;5.27;4.73;;;25.30;94.50;;;;;;5075361;28;20204;-69
2023/08/26 02:26:27;;;;;;;6.63;5.07;;;25.20;94.40;;;;;;5075823;28;20247;-69
2023/08/26 02:28:54;;;;;;;4.60;4.13;;;25.20;94.50;;;;;;5076052;28;20299;-69
2023/08/26 02:31:22;;;;;;;5.13;4.53;;;25.20;94.50;;;;;;5075407;28;20229;-69
2023/08/26 02:33:49;;;;;;;8.13;4.87;;;25.20;94.40;;;;;;5075296;28;20574;-68
2023/08/26 02:36:16;;;;;;;5.67;4.37;;;25.10;94.20;;;;;;5075216;28;20241;-68
2023/08/26 02:38:43;;;;;;;5.50;4.63;;;25.10;94.20;;;;;;5075881;28;20209;-68
2023/08/26 02:41:09;;;;;;;5.57;4.10;;;25.10;94.10;;;;;;5075732;28;20212;-68
2023/08/26 02:43:36;;;;;;;6.27;4.43;;;25.10;94.20;;;;;;5075167;28;20691;-69
2023/08/26 02:46:03;;;;;;;6.90;4.60;;;25.10;93.90;;;;;;5075302;28;20211;-68
2023/08/26 02:48:31;;;;;;;5.17;4.43;;;25.10;94.00;;;;;;5075376;28;20555;-69
2023/08/26 02:50:58;;;;;;;6.03;4.70;;;25.00;94.10;;;;;;5075287;28;20224;-69
2023/08/26 02:53:26;;;;;;;6.10;5.00;;;25.00;93.90;;;;;;5075493;28;20330;-69
2023/08/26 02:55:54;;;;;;;5.40;4.90;;;25.00;93.70;;;;;;5075399;28;20240;-68
2023/08/26 02:58:21;;;;;;;7.33;5.17;;;25.00;93.50;;;;;;5075947;28;20315;-68
2023/08/26 03:00:48;;;;;;;5.23;4.23;;;25.00;93.50;;;;;;5090128;28;20289;-69
2023/08/26 03:03:15;;;;;;;5.20;4.70;;;24.90;93.40;;;;;;5094297;28;20240;-70
2023/08/26 03:05:44;;;;;;;6.50;4.80;;;24.90;93.50;;;;;;5075872;28;20195;-69
2023/08/26 03:08:10;;;;;;;7.13;5.10;;;25.00;93.40;;;;;;5075104;28;20630;-69
2023/08/26 03:10:37;;;;;;;6.93;4.63;;;24.90;93.40;;;;;;5075059;28;20294;-69
2023/08/26 03:13:06;;;;;;;5.30;4.57;;;24.90;93.40;;;;;;5074802;28;20232;-68
2023/08/26 03:15:33;;;;;;;6.93;4.63;;;24.90;93.40;;;;;;5073913;28;20243;-68
2023/08/26 03:18:00;;;;;;;6.27;4.60;;;24.90;93.50;;;;;;5074559;28;20209;-69
2023/08/26 03:20:27;;;;;;;6.03;5.20;;;24.90;93.60;;;;;;5074901;28;20300;-69
2023/08/26 03:22:55;;;;;;;5.23;4.73;;;25.00;93.70;;;;;;5074919;28;20572;-69
2023/08/26 03:25:22;;;;;;;6.33;5.10;;;25.00;93.70;;;;;;5074307;28;20221;-69
2023/08/26 03:27:48;;;;;;;7.83;5.30;;;25.00;93.70;;;;;;5074523;28;20534;-69
2023/08/26 03:30:15;;;;;;;5.53;4.83;;;25.00;93.80;;;;;;5073845;28;20209;-69
2023/08/26 03:32:42;;;;;;;5.03;4.43;;;24.90;94.00;;;;;;5074664;28;20205;-69
2023/08/26 03:35:09;;;;;;;7.33;4.77;;;24.90;93.80;;;;;;5074147;28;20229;-70
2023/08/26 03:37:36;;;;;;;6.43;4.67;;;24.90;93.80;;;;;;5074284;28;20274;-68
2023/08/26 03:40:08;;;;;;;6.50;5.43;;;24.80;93.80;;;;;;5074299;28;20228;-70
2023/08/26 03:42:35;;;;;;;8.50;5.00;;;24.80;93.60;;;;;;5074217;28;20669;-69
2023/08/26 03:45:04;;;;;;;6.57;4.37;;;24.80;94.10;;;;;;5074054;28;20225;-69
2023/08/26 03:47:31;;;;;;;5.67;4.47;;;24.80;93.70;;;;;;5073939;28;20258;-70
2023/08/26 03:49:58;;;;;;;7.17;5.03;;;24.80;93.80;;;;;;5074237;28;20229;-69
2023/08/26 03:52:25;;;;;;;7.20;4.80;;;24.80;93.50;;;;;;5074394;28;20295;-70
2023/08/26 03:54:52;;;;;;;4.73;4.33;;;24.80;93.50;;;;;;5074089;28;20300;-69
2023/08/26 03:57:20;;;;;;;5.47;4.27;;;24.80;93.50;;;;;;5073406;28;20243;-69
2023/08/26 03:59:47;;;;;;;5.77;4.40;;;24.70;93.50;;;;;;5073993;28;20217;-68
2023/08/26 04:02:14;;;;;;;5.67;4.73;;;24.70;93.40;;;;;;5073982;28;20297;-69
2023/08/26 04:04:40;;;;;;;6.60;4.87;;;24.60;93.30;;;;;;5073920;28;20243;-68
2023/08/26 04:07:07;;;;;;;5.30;4.80;;;24.60;93.40;;;;;;5073685;28;20213;-69
2023/08/26 04:09:35;;;;;;;7.10;4.60;;;24.60;93.30;;;;;;5074089;28;20609;-70
2023/08/26 04:12:02;;;;;;;6.17;4.40;;;24.50;93.00;;;;;;5073569;28;20591;-69
2023/08/26 04:14:30;;;;;;;5.77;5.13;;;24.40;93.10;;;;;;5073864;28;20312;-69
2023/08/26 04:16:57;;;;;;;6.17;4.73;;;24.30;93.10;;;;;;5073245;28;20233;-68
2023/08/26 04:19:23;;;;;;;5.77;5.10;;;24.20;93.10;;;;;;5074056;28;20304;-70
2023/08/26 04:21:50;;;;;;;6.90;4.93;;;24.20;93.00;;;;;;5073701;28;20225;-69
2023/08/26 04:24:17;;;;;;;6.93;4.90;;;24.10;93.20;;;;;;5073773;28;20231;-67
2023/08/26 04:26:44;;;;;;;5.53;4.70;;;24.00;93.50;;;;;;5072999;28;20201;-69
2023/08/26 04:29:11;;;;;;;5.80;4.67;;;24.00;93.40;;;;;;5073244;28;20196;-69
2023/08/26 04:31:39;;;;;;;5.60;4.77;;;24.00;93.30;;;;;;5073486;28;20239;-69
2023/08/26 04:34:05;;;;;;;6.97;4.70;;;24.00;93.20;;;;;;5073377;28;20208;-69
2023/08/26 04:36:32;;;;;;;5.37;4.33;;;24.00;93.10;;;;;;5073105;28;20270;-69
2023/08/26 04:38:59;;;;;;;5.80;4.40;;;24.10;93.10;;;;;;5073094;28;20315;-69
2023/08/26 04:41:26;;;;;;;6.23;4.30;;;24.10;92.90;;;;;;5072922;28;20209;-68
2023/08/26 04:43:54;;;;;;;6.13;4.50;;;24.00;92.80;;;;;;5073220;28;20312;-68
2023/08/26 04:46:21;;;;;;;7.20;4.93;;;24.10;92.80;;;;;;5073047;28;20207;-69
2023/08/26 04:48:49;;;;;;;5.40;4.83;;;24.10;92.70;;;;;;5072659;28;20228;-69
2023/08/26 04:51:16;;;;;;;6.40;4.40;;;24.10;92.50;;;;;;5073254;28;20244;-68
2023/08/26 04:53:43;;;;;;;5.50;4.60;;;24.20;92.80;;;;;;5073240;28;20232;-69
2023/08/26 04:56:10;;;;;;;6.33;4.43;;;24.10;92.20;;;;;;5072718;28;20208;-70
2023/08/26 04:58:37;;;;;;;7.37;5.00;;;24.10;92.10;;;;;;5072354;28;20240;-69
2023/08/26 05:01:04;;;;;;;7.47;4.60;;;24.10;92.10;;;;;;5073130;28;20315;-69
2023/08/26 05:03:31;;;;;;;5.17;4.23;;;24.10;92.00;;;;;;5072372;28;20236;-69
2023/08/26 05:05:59;;;;;;;7.40;4.70;;;24.10;92.10;;;;;;5073077;28;20423;-69
2023/08/26 05:08:26;;;;;;;8.00;4.10;;;24.00;91.90;;;;;;5072336;28;20209;-68
2023/08/26 05:10:53;;;;;;;7.97;4.67;;;23.90;92.00;;;;;;5072517;28;20214;-68
2023/08/26 05:13:22;;;;;;;5.20;4.27;;;23.80;92.20;;;;;;5072556;28;20661;-69
2023/08/26 05:15:49;;;;;;;7.30;5.20;;;23.80;92.20;;;;;;5072528;28;20221;-68
2023/08/26 05:18:16;;;;;;;6.57;4.60;;;23.80;92.30;;;;;;5072528;28;20233;-69
2023/08/26 05:20:44;;;;;;;5.93;4.53;;;23.80;92.50;;;;;;5072609;28;20256;-68
2023/08/26 05:23:13;;;;;;;5.03;4.53;;;24.00;92.60;;;;;;5072236;28;20220;-69
2023/08/26 05:25:40;;;;;;;6.47;4.67;;;24.10;92.20;;;;;;5072126;28;20224;-69
2023/08/26 05:28:07;;;;;;;7.83;4.63;;;24.10;92.00;;;;;;5072348;28;20661;-68
2023/08/26 05:30:34;;;;;;;4.53;4.13;;;24.10;92.00;;;;;;5071583;28;20232;-68
2023/08/26 05:33:01;;;;;;;5.93;4.47;;;24.00;91.90;;;;;;5072526;28;20703;-69
2023/08/26 05:35:28;;;;;;;5.83;4.57;;;24.00;91.90;;;;;;5072569;28;20365;-68
2023/08/26 05:37:55;;;;;;;8.20;4.97;;;24.00;91.90;;;;;;5072056;28;20231;-68
2023/08/26 05:40:26;;;;;;;6.27;4.47;;;24.00;92.00;;;;;;5071491;28;20211;-70
2023/08/26 05:42:55;;;;;;;6.70;5.10;;;24.00;91.90;;;;;;5072106;28;20201;-68
2023/08/26 05:45:22;;;;;;;7.00;4.87;;;24.00;92.20;;;;;;5072025;28;20209;-68
2023/08/26 05:47:48;;;;;;;7.13;4.00;;;24.10;91.80;;;;;;5072716;28;20295;-69
2023/08/26 05:50:15;;;;;;;6.27;4.40;;;24.10;91.80;;;;;;5071860;28;20225;-68
2023/08/26 05:52:42;;;;;;;5.70;4.70;;;24.10;91.80;;;;;;5071566;28;20212;-69
2023/08/26 05:55:11;;;;;;;5.30;4.40;;;24.00;91.80;;;;;;5072122;28;20649;-68
2023/08/26 05:57:40;;;;;;;10.90;4.67;;;24.00;91.90;;;;;;5072062;28;20278;-68
2023/08/26 06:00:08;;;;;;;6.67;4.30;;;24.00;92.00;;;;;;5071899;28;20217;-68
2023/08/26 06:02:35;;;;;;;5.97;4.17;;;24.00;92.00;;;;;;5072070;28;20229;-69
2023/08/26 06:05:02;;;;;;;7.73;4.90;;;24.00;91.90;;;;;;5071794;28;20237;-68
2023/08/26 06:07:29;;;;;;;9.03;5.00;;;24.10;91.90;;;;;;5072065;28;20224;-69
2023/08/26 06:09:56;;;;;;;4.63;4.13;;;24.10;91.80;;;;;;5071646;28;20212;-68
2023/08/26 06:12:23;;;;;;;7.20;4.30;;;24.10;91.70;;;;;;5071928;28;20238;-68
2023/08/26 06:14:51;;;;;;;4.93;4.27;;;24.20;91.90;;;;;;5072190;28;20231;-70
2023/08/26 06:17:18;;;;;;;6.40;4.60;;;24.30;91.80;;;;;;5071979;28;20247;-68
2023/08/26 06:19:45;;;;;;;6.57;4.70;;;24.30;91.80;;;;;;5071964;28;20565;-69
2023/08/26 06:22:11;;;;;;;4.87;4.10;;;24.30;91.80;;;;;;5071298;28;20580;-70
2023/08/26 06:24:38;;;;;;;5.37;4.67;;;24.30;91.80;;;;;;5071990;28;20205;-69
2023/08/26 06:27:06;;;;;;;5.23;4.60;;;24.30;91.90;;;;;;5071859;28;20201;-69
2023/08/26 06:29:32;;;;;;;5.17;3.93;;;24.40;92.10;;;;;;5071775;28;20212;-69
2023/08/26 06:32:01;;;;;;;6.00;4.40;;;24.40;92.10;;;;;;5071621;28;20220;-69
2023/08/26 06:34:27;;;;;;;4.90;4.10;;;24.50;92.40;;;;;;5071970;28;20227;-69
2023/08/26 06:36:54;;;;;;;6.17;3.40;;;24.50;91.60;;;;;;5071428;28;20229;-72
2023/08/26 06:39:20;;;;;;;4.97;3.27;;;24.50;90.10;;;;;;5071842;28;20228;-69
2023/08/26 06:41:47;;;;;;;4.73;2.93;;;24.50;89.50;;;;;;5071395;28;20312;-69
2023/08/26 06:44:14;;;;;;;5.37;3.37;;;24.50;88.60;;;;;;5071756;28;20584;-69
2023/08/26 06:46:41;;;;;;;4.17;2.80;;;24.60;89.60;;;;;;5071957;28;20208;-69
2023/08/26 06:49:09;;;;;;;3.30;2.70;;;24.60;88.80;;;;;;5071912;28;20233;-69
2023/08/26 06:51:36;;;;;;;3.33;2.20;;;24.70;88.30;;;;;;5071327;28;20216;-69
2023/08/26 06:54:03;;;;;;;2.90;2.40;;;24.80;87.60;;;;;;5071647;28;20216;-69
2023/08/26 06:56:30;;;;;;;3.67;2.13;;;24.80;85.70;;;;;;5071731;28;20215;-69
2023/08/26 06:58:58;;;;;;;3.53;2.30;;;24.90;86.10;;;;;;5071599;28;20228;-68
2023/08/26 07:01:25;;;;;;;2.57;2.27;;;25.00;85.00;;;;;;5071484;28;20205;-69
2023/08/26 07:03:53;;;;;;;5.47;2.57;;;24.90;84.70;;;;;;5072276;28;20319;-70
2023/08/26 07:06:23;;;;;;;5.03;2.47;;;25.00;84.50;;;;;;5074943;28;20217;-69
2023/08/26 07:08:50;;;;;;;2.77;2.20;;;25.00;85.20;;;;;;5075602;28;20185;-70
2023/08/26 07:11:17;;;;;;;3.27;2.23;;;24.90;84.80;;;;;;5077884;28;20209;-69
2023/08/26 07:13:44;;;;;;;2.60;2.27;;;24.90;84.00;;;;;;5089156;28;20233;-69
2023/08/26 07:16:11;;;;;;;3.23;2.30;;;24.90;83.30;;;;;;5086453;28;20312;-70
2023/08/26 07:18:38;;;;;;;4.07;2.17;;;24.80;81.00;;;;;;5074163;28;20221;-70
2023/08/26 07:21:04;;;;;;;3.23;2.40;;;24.80;82.80;;;;;;5074330;28;20239;-70
2023/08/26 07:23:33;;;;;;;6.60;2.37;;;24.80;79.80;;;;;;5074393;28;20207;-69
2023/08/26 07:25:59;;;;;;;2.87;1.83;;;24.60;79.20;;;;;;5074993;28;20239;-69
2023/08/26 07:28:26;;;;;;;2.30;2.10;;;24.50;78.00;;;;;;5074848;28;20703;-70
2023/08/26 07:30:54;;;;;;;2.80;2.07;;;24.40;78.90;;;;;;5074827;28;20214;-69
2023/08/26 07:33:21;;;;;;;6.47;2.30;;;24.40;78.90;;;;;;5074552;28;20185;-69
2023/08/26 07:35:48;;;;;;;2.83;1.80;;;24.50;78.80;;;;;;5074507;28;20223;-70
2023/08/26 07:38:15;;;;;;;3.80;2.43;;;24.50;77.90;;;;;;5074566;28;20275;-69
2023/08/26 07:40:43;;;;;;;4.07;2.20;;;24.50;80.80;;;;;;5074694;28;20217;-68
2023/08/26 07:43:10;;;;;;;4.03;2.17;;;24.50;79.30;;;;;;5074451;28;20572;-69
2023/08/26 07:45:37;;;;;;;3.20;2.00;;;24.50;77.70;;;;;;5074146;28;20220;-69
2023/08/26 07:48:04;;;;;;;3.37;1.93;;;24.50;76.40;;;;;;5074608;28;20228;-69
2023/08/26 07:50:30;;;;;;;2.93;1.90;;;24.50;77.30;;;;;;5074354;28;20215;-68
2023/08/26 07:52:57;;;;;;;2.23;1.80;;;24.50;78.50;;;;;;5073989;28;20607;-70
2023/08/26 07:55:24;;;;;;;2.00;1.67;;;24.60;80.10;;;;;;5074265;28;20205;-69
2023/08/26 07:57:52;;;;;;;1.73;1.63;;;24.80;81.10;;;;;;5073955;28;20229;-70
2023/08/26 08:00:19;;;;;;;3.77;2.20;;;24.90;81.40;;;;;;5074259;28;20211;-70
2023/08/26 08:02:46;;;;;;;2.27;1.70;;;25.10;81.10;;;;;;5055256;28;20225;-69
2023/08/26 08:05:13;;;;;;;2.97;2.00;;;25.10;78.10;;;;;;5073509;28;20693;-69
2023/08/26 08:07:39;;;;;;;3.40;2.10;;;25.10;76.70;;;;;;5073974;28;20201;-69
2023/08/26 08:10:08;;;;;;;3.70;1.90;;;25.20;77.20;;;;;;5074274;28;20288;-69
2023/08/26 08:12:35;;;;;;;2.83;1.80;;;25.20;78.00;;;;;;5074243;28;20208;-68
2023/08/26 08:15:04;;;;;;;2.40;1.93;;;25.30;77.90;;;;;;5073077;28;20243;-70
2023/08/26 08:17:31;;;;;;;2.70;2.10;;;25.40;77.30;;;;;;5073971;28;20236;-69
2023/08/26 08:19:58;;;;;;;2.83;2.20;;;25.40;78.50;;;;;;5073111;28;20740;-69
2023/08/26 08:22:36;;;;;;;3.57;2.10;;;25.50;78.20;;;;;;5073789;28;20212;-69
2023/08/26 08:25:03;;;;;;;2.30;1.90;;;25.50;75.10;;;;;;5073485;28;20229;-68
2023/08/26 08:27:30;;;;;;;4.10;2.10;;;25.50;75.10;;;;;;5073517;28;20208;-69
2023/08/26 08:29:57;;;;;;;2.40;2.00;;;25.60;77.00;;;;;;5073802;28;20228;-69
2023/08/26 08:32:27;;;;;;;2.33;2.13;;;25.60;76.10;;;;;;5073805;28;20205;-71
2023/08/26 08:34:54;;;;;;;3.10;1.97;;;25.70;77.50;;;;;;5072893;28;20529;-68
2023/08/26 08:37:21;;;;;;;4.67;2.03;;;25.80;75.10;;;;;;5073550;28;20205;-68
2023/08/26 08:39:48;;;;;;;3.83;2.10;;;25.80;72.60;;;;;;5073409;28;20323;-69
2023/08/26 08:42:17;;;;;;;2.23;2.03;;;25.60;72.90;;;;;;5073456;28;20204;-69
2023/08/26 08:44:46;;;;;;;3.17;2.20;;;25.70;74.80;;;;;;5073039;28;20223;-69
2023/08/26 08:47:14;;;;;;;3.23;2.20;;;25.70;72.90;;;;;;5072366;28;20197;-69
2023/08/26 08:49:44;;;;;;;3.73;2.20;;;25.70;71.40;;;;;;5073385;28;20205;-68
2023/08/26 08:52:14;;;;;;;3.00;2.13;;;25.80;71.60;;;;;;5075204;28;20312;-68
2023/08/26 08:54:41;;;;;;;2.07;1.77;;;25.90;72.30;;;;;;5073874;28;20201;-69
2023/08/26 08:57:15;;;;;;;2.87;2.17;;;26.00;72.90;;;;;;5073332;28;20237;-68
2023/08/26 08:59:42;;;;;;;3.10;1.87;;;26.20;72.10;;;;;;5072605;28;20217;-69
2023/08/26 09:02:12;;;;;;;2.13;1.90;;;26.30;72.60;;;;;;5072704;28;20233;-68
2023/08/26 09:04:39;;;;;;;1.77;1.67;;;26.20;68.90;;;;;;5072765;28;20327;-69
2023/08/26 09:07:11;;;;;;;2.50;1.87;;;26.20;70.90;;;;;;5072250;28;20233;-68
2023/08/26 09:09:38;;;;;;;3.23;2.10;;;26.20;71.60;;;;;;5072815;28;20181;-68
2023/08/26 09:12:06;;;;;;;1.73;1.63;;;26.30;71.30;;;;;;5072811;28;20240;-68
2023/08/26 09:14:33;;;;;;;2.63;2.13;;;26.30;70.80;;;;;;5072892;28;20593;-69
2023/08/26 09:17:15;;;;;;;3.30;2.50;;;26.40;69.70;;;;;;5071835;28;20229;-69
2023/08/26 09:19:52;;;;;;;3.03;2.10;;;26.20;67.80;;;;;;5072383;28;20681;-68
2023/08/26 09:22:24;;;;;;;2.23;2.03;;;26.20;69.50;;;;;;5072192;28;20712;-69
2023/08/26 09:24:55;;;;;;;2.20;1.90;;;26.10;68.40;;;;;;5072425;28;20667;-68
2023/08/26 09:27:21;;;;;;;4.00;2.10;;;26.00;68.60;;;;;;5071394;28;20229;-69
2023/08/26 09:29:48;;;;;;;2.50;2.00;;;25.90;68.80;;;;;;5072630;28;20279;-68
2023/08/26 09:32:15;;;;;;;4.43;2.63;;;25.80;69.50;;;;;;5072207;28;20205;-71
2023/08/26 09:34:42;;;;;;;2.83;2.40;;;25.80;69.20;;;;;;5072614;28;20292;-68
2023/08/26 09:37:09;;;;;;;3.03;2.23;;;26.00;71.00;;;;;;5071943;28;20213;-69
2023/08/26 09:39:47;;;;;;;3.73;2.40;;;26.20;71.70;;;;;;5072212;28;20255;-69
2023/08/26 09:42:14;;;;;;;2.67;1.90;;;26.50;72.40;;;;;;5072420;28;20240;-69
2023/08/26 09:44:42;;;;;;;2.97;2.37;;;26.60;72.70;;;;;;5072474;28;20197;-69
2023/08/26 09:47:12;;;;;;;3.30;1.93;;;26.70;70.60;;;;;;5071527;28;20223;-69
2023/08/26 09:49:49;;;;;;;2.43;2.13;;;26.60;69.90;;;;;;5072240;28;20587;-69
2023/08/26 09:52:16;;;;;;;6.10;2.33;;;26.50;70.10;;;;;;5072205;28;20224;-70
2023/08/26 09:54:45;;;;;;;3.43;2.27;;;26.50;70.00;;;;;;5072284;28;20237;-69
2023/08/26 09:57:12;;;;;;;2.97;2.30;;;26.50;70.30;;;;;;5072082;28;20211;-69
2023/08/26 09:59:39;;;;;;;2.93;2.20;;;26.50;71.10;;;;;;5071427;28;20331;-69
2023/08/26 10:02:15;;;;;;;3.37;2.20;;;26.60;70.90;;;;;;5071916;28;20212;-69
2023/08/26 10:04:43;;;;;;;4.63;2.20;;;26.70;70.70;;;;;;5071856;28;20228;-68
2023/08/26 10:07:10;;;;;;;4.07;1.93;;;26.80;70.70;;;;;;5071909;28;20248;-68
2023/08/26 10:09:44;;;;;;;2.27;2.00;;;26.70;68.10;;;;;;5071958;28;20228;-69
2023/08/26 10:12:17;;;;;;;2.23;2.00;;;26.60;66.50;;;;;;5072231;28;20205;-69
2023/08/26 10:14:46;;;;;;;2.97;1.73;;;26.40;66.70;;;;;;5071527;28;20235;-69
2023/08/26 10:17:15;;;;;;;2.20;1.90;;;26.30;66.40;;;;;;5083127;28;20261;-69
2023/08/26 10:19:43;;;;;;;2.67;1.80;;;26.30;67.00;;;;;;5075314;28;20229;-70
2023/08/26 10:22:10;;;;;;;2.70;1.80;;;26.20;65.20;;;;;;5072805;28;20780;-68
2023/08/26 10:24:38;;;;;;;1.87;1.73;;;26.00;64.00;;;;;;5073114;28;20291;-70
2023/08/26 10:27:07;;;;;;;1.80;1.60;;;25.80;64.70;;;;;;5073799;28;20211;-69
2023/08/26 10:29:37;;;;;;;2.53;1.70;;;25.70;64.50;;;;;;5071171;28;20200;-69
2023/08/26 10:32:15;;;;;;;6.30;2.43;;;25.60;65.00;;;;;;5072367;28;20627;-67
2023/08/26 10:34:52;;;;;;;2.80;1.90;;;25.60;66.10;;;;;;5072692;28;20185;-69
2023/08/26 10:37:19;;;;;;;1.70;1.60;;;25.70;65.80;;;;;;5072462;28;20669;-69
2023/08/26 10:39:46;;;;;;;1.73;1.63;;;25.60;64.90;;;;;;5075178;28;20264;-69
2023/08/26 10:42:16;;;;;;;2.27;1.70;;;25.60;64.70;;;;;;5075766;28;20642;-69
2023/08/26 10:44:48;;;;;;;3.47;1.70;;;25.50;63.80;;;;;;5075308;28;20201;-69
2023/08/26 10:47:40;;;;;;;1.80;1.70;;;25.30;63.30;;;;;;5075523;28;20264;-69
2023/08/26 10:50:28;;;;;;;1.37;1.27;;;25.40;65.30;;;;;;5075042;28;20204;-68
2023/08/26 10:52:56;;;;;;;1.57;1.40;;;25.50;66.10;;;;;;5075463;28;20256;-68
2023/08/26 10:55:25;;;;;;;1.53;1.43;;;25.60;66.40;;;;;;5075582;28;20624;-68
2023/08/26 10:58:19;;;;;;;1.67;1.57;;;25.60;66.60;;;;;;5074928;28;20684;-70
2023/08/26 11:00:50;;;;;;;1.47;1.20;;;25.60;66.60;;;;;;5050317;28;20205;-68
2023/08/26 11:03:18;;;;;;;2.87;1.47;;;25.70;67.90;;;;;;5075145;28;20315;-68
2023/08/26 11:05:47;;;;;;;2.03;1.70;;;25.70;65.60;;;;;;5075479;28;20208;-69
2023/08/26 11:08:14;;;;;;;1.50;1.40;;;25.50;62.00;;;;;;5075109;28;20320;-69
2023/08/26 11:10:42;;;;;;;1.80;1.40;;;25.40;61.10;;;;;;5074573;28;20205;-69
2023/08/26 11:13:10;;;;;;;1.30;1.20;;;25.30;59.70;;;;;;5074760;28;20229;-69
2023/08/26 11:15:39;;;;;;;2.53;1.77;;;25.20;59.70;;;;;;5075033;28;20303;-69
2023/08/26 11:18:08;;;;;;;2.23;1.60;;;25.00;60.00;;;;;;5074885;28;20232;-69
2023/08/26 11:20:35;;;;;;;2.00;1.47;;;25.00;61.50;;;;;;5074839;28;20209;-69
2023/08/26 11:23:03;;;;;;;2.07;1.40;;;25.00;64.80;;;;;;5074861;28;20681;-69
2023/08/26 11:25:30;;;;;;;2.90;1.47;;;25.10;65.20;;;;;;5076143;28;20270;-69
2023/08/26 11:28:03;;;;;;;1.30;1.20;;;25.20;64.60;;;;;;5077832;28;20607;-68
2023/08/26 11:30:30;;;;;;;3.63;1.43;;;25.20;63.80;;;;;;5076933;28;20200;-69
2023/08/26 11:33:06;;;;;;;7.07;1.87;;;25.20;64.00;;;;;;5074839;28;20217;-68
2023/08/26 11:35:37;;;;;;;1.83;1.43;;;25.20;64.70;;;;;;5074971;28;20185;-69
2023/08/26 11:38:09;;;;;;;1.60;1.40;;;25.20;66.50;;;;;;5074554;28;20212;-69
2023/08/26 11:40:37;;;;;;;2.13;1.47;;;25.20;67.90;;;;;;5074620;28;20264;-70
2023/08/26 11:43:08;;;;;;;2.50;1.50;;;25.10;69.30;;;;;;5073950;28;20197;-69
2023/08/26 11:45:35;;;;;;;4.70;1.60;;;25.10;69.80;;;;;;5074613;28;20320;-70
2023/08/26 11:48:06;;;;;;;1.37;1.23;;;25.00;68.90;;;;;;5074305;28;20209;-69
2023/08/26 11:50:35;;;;;;;1.87;1.40;;;25.00;68.20;;;;;;5073560;28;20647;-69
2023/08/26 11:53:03;;;;;;;1.30;1.10;;;25.00;69.70;;;;;;5074316;28;20548;-68
2023/08/26 11:55:31;;;;;;;1.93;1.50;;;24.90;69.50;;;;;;5074324;28;20232;-69
2023/08/26 11:58:00;;;;;;;1.60;1.50;;;24.90;69.70;;;;;;5074500;28;20201;-70
2023/08/26 12:00:27;;;;;;;1.93;1.70;;;25.00;71.40;;;;;;5073911;28;20319;-69
2023/08/26 12:02:59;;;;;;;2.40;1.80;;;25.00;71.50;;;;;;5073864;28;20209;-69
2023/08/26 12:05:26;;;;;;;1.77;1.60;;;25.00;68.70;;;;;;5073968;28;20243;-70
2023/08/26 12:07:56;;;;;;;3.33;2.07;;;25.00;68.90;;;;;;5073950;28;20714;-69
2023/08/26 12:10:27;;;;;;;2.13;1.77;;;25.00;68.20;;;;;;5073858;28;20607;-69
2023/08/26 12:13:03;;;;;;;2.30;1.60;;;24.90;68.50;;;;;;5073759;28;20547;-68
2023/08/26 12:15:33;;;;;;;2.10;1.70;;;24.90;69.90;;;;;;5073797;28;20247;-68
2023/08/26 12:18:00;;;;;;;2.57;1.83;;;24.90;70.40;;;;;;5074043;28;20193;-69
2023/08/26 12:20:28;;;;;;;2.13;1.70;;;24.90;70.20;;;;;;5073789;28;20229;-69
2023/08/26 12:23:01;;;;;;;1.97;1.60;;;24.90;69.90;;;;;;5073396;28;20307;-69
2023/08/26 12:25:31;;;;;;;3.77;1.83;;;24.90;69.20;;;;;;5073505;28;20192;-69
2023/08/26 12:28:06;;;;;;;2.60;1.70;;;24.90;68.70;;;;;;5073673;28;20239;-69
2023/08/26 12:30:36;;;;;;;2.60;1.57;;;24.90;68.60;;;;;;5073634;28;20207;-68
2023/08/26 12:33:06;;;;;;;2.50;1.70;;;25.00;67.50;;;;;;5072840;28;20236;-70
2023/08/26 12:35:37;;;;;;;2.20;1.70;;;25.00;68.40;;;;;;5073281;28;20687;-69
2023/08/26 12:38:06;;;;;;;3.03;1.87;;;25.00;69.40;;;;;;5073398;28;20225;-69
2023/08/26 12:40:34;;;;;;;3.97;3.27;;;25.10;69.20;;;;;;5073070;28;20320;-69
2023/08/26 12:43:02;;;;;;;3.90;2.00;;;25.10;68.50;;;;;;5072879;28;20235;-69
2023/08/26 12:45:34;;;;;;;3.00;2.20;;;25.10;67.60;;;;;;5073067;28;20209;-69
2023/08/26 12:48:04;;;;;;;2.57;2.00;;;25.10;66.80;;;;;;5073218;28;20601;-69
2023/08/26 12:50:34;;;;;;;2.00;1.70;;;25.20;66.00;;;;;;5073573;28;20197;-68
2023/08/26 12:53:01;;;;;;;3.20;1.83;;;25.10;65.40;;;;;;5072677;28;20253;-69